Airfield :
LOGIN :

Register | Disclaimer

   EN    FR    IT 

 










Legend :    VFR   Marginal VFR   IFR   Intensive IFR   Very Intensive IFR
Visi :
Ceiling :
>= 8 km
>= 3000ft
5 to 8 km
1000 to 3000 ft
1500m to 5 km
500 to 1000 ft
800 to 1500m
200 to 500 ft
< 800m
< 200 ft
Symbols :   Thunderstorms  Fog  Heavy snow  Heavy precipitations  Wind > 20 kt
SIGMETs :     Misc.  Thunderstorms  Icing  Turbulence  Mountain Waves  Volcanic Ashes






- Airport Elevation : 622 ft
- IATA code : BRS


EGGD - Bristol Int.

CURRENT METAR :
  • 041550Z AUTO 05011KT 360V080 9000 BKN009 OVC027 03/02 Q1016

EXPIRED METARs :
  • 041520Z AUTO 06011KT 010V080 8000 BKN008 OVC026 03/02 Q1016
  • 041450Z AUTO 07012KT 360V080 7000 OVC006 03/02 Q1016
  • 041420Z AUTO 06010KT 360V080 6000 OVC005 03/02 Q1016
  • 041350Z AUTO 07012KT 5000 BR BKN004 OVC010 03/03 Q1016
  • 041320Z AUTO 07014KT 5000 BR OVC004 03/02 Q1016

TAF AMD TAF EGGD
Valid from the 04 at 12:00 until the 05 at 12:00 UTC


041133Z 0412/0512 05010KT 9999 SCT022
TEMPO 0412/0418 BKN010
PROB30
TEMPO 0412/0416 4000 RADZ BKN004
PROB30
TEMPO 0418/0504 BKN012
TEMPO 0504/0512 BKN010
PROB30
TEMPO 0504/0512 BKN008
ATIS : +44 1275 473 666



MET'MAP, your aeronautical weather chart ! - Copyright ORBIFLY December 2007 - Disclaimer

ORBIFLY MET'MAP TEAM :

Programming & Development : Alexandra Zaïnal
Original concept : Baudouin d'Aumeries
Technical & hardware support : Manuel Goepfert
Assistance : Marc-Olivier Méhu




SOURCES & CREDITS :

   NOAA